createdAt,value
2018-06-19T00:00:02.468Z,79.38
2018-06-19T00:00:33.697Z,79.53
2018-06-19T00:01:04.921Z,79.59
2018-06-19T00:01:36.104Z,79.51
2018-06-19T00:02:07.354Z,80.02
2018-06-19T00:02:38.718Z,79.36
2018-06-19T00:03:09.903Z,80.08
2018-06-19T00:03:41.083Z,79.63
2018-06-19T00:04:12.260Z,80.32
2018-06-19T00:04:43.483Z,79.99
2018-06-19T00:05:14.674Z,79.79
2018-06-19T00:05:45.994Z,79.56
2018-06-19T00:06:17.181Z,79.41
2018-06-19T00:06:48.357Z,79.87
2018-06-19T00:07:19.527Z,79.63
2018-06-19T00:07:50.719Z,79.71
2018-06-19T00:08:21.953Z,80.09
2018-06-19T00:08:53.121Z,79.90
2018-06-19T00:09:24.346Z,79.64
2018-06-19T00:09:55.552Z,79.57
2018-06-19T00:10:26.754Z,79.32
2018-06-19T00:10:57.965Z,79.58
2018-06-19T00:11:29.197Z,79.18
2018-06-19T00:12:00.386Z,79.23
2018-06-19T00:12:31.636Z,79.42
2018-06-19T00:13:02.817Z,78.60
2018-06-19T00:13:34.040Z,78.39
2018-06-19T00:14:05.226Z,78.76
2018-06-19T00:14:36.412Z,78.63
2018-06-19T00:15:07.596Z,78.23
2018-06-19T00:15:38.817Z,78.70
2018-06-19T00:16:10.105Z,79.22
2018-06-19T00:16:41.290Z,78.37
2018-06-19T00:17:12.548Z,78.71
2018-06-19T00:17:43.737Z,79.33
2018-06-19T00:18:14.936Z,79.37
2018-06-19T00:18:46.101Z,79.30
2018-06-19T00:19:17.278Z,79.42
2018-06-19T00:19:48.525Z,79.18
2018-06-19T00:20:19.741Z,78.69
2018-06-19T00:20:50.920Z,78.39
2018-06-19T00:21:22.191Z,78.44
2018-06-19T00:21:53.376Z,78.32
2018-06-19T00:22:24.649Z,78.03
2018-06-19T00:22:55.844Z,78.82
2018-06-19T00:23:27.008Z,78.27
2018-06-19T00:23:58.179Z,79.04
2018-06-19T00:24:29.413Z,78.71
2018-06-19T00:25:00.709Z,78.56
2018-06-19T00:25:31.892Z,79.05
2018-06-19T00:26:03.063Z,78.67
2018-06-19T00:26:34.306Z,78.82
2018-06-19T00:27:05.532Z,78.96
2018-06-19T00:27:36.705Z,79.19
2018-06-19T00:28:07.922Z,79.61
2018-06-19T00:28:39.113Z,79.55
2018-06-19T00:29:10.373Z,78.95
2018-06-19T00:29:41.596Z,79.09
2018-06-19T00:30:12.765Z,78.91
2018-06-19T00:30:44.033Z,78.79
2018-06-19T00:31:15.269Z,78.60
2018-06-19T00:31:46.468Z,78.51
2018-06-19T00:32:17.645Z,78.84
2018-06-19T00:32:48.894Z,79.14
2018-06-19T00:33:20.097Z,78.46
2018-06-19T00:33:51.273Z,78.42
2018-06-19T00:34:22.444Z,78.24
2018-06-19T00:34:53.622Z,78.16
2018-06-19T00:35:24.857Z,78.32
2018-06-19T00:35:56.081Z,78.73
2018-06-19T00:36:27.260Z,78.55
2018-06-19T00:36:58.432Z,78.41
2018-06-19T00:37:29.609Z,77.82
2018-06-19T00:38:00.799Z,77.70
2018-06-19T00:38:32.071Z,77.44
2018-06-19T00:39:03.304Z,77.32
2018-06-19T00:39:34.541Z,77.23
2018-06-19T00:40:05.724Z,77.75
2018-06-19T00:40:37.914Z,76.61
2018-06-19T00:41:09.120Z,77.41
2018-06-19T00:41:41.366Z,77.53
2018-06-19T00:42:12.597Z,76.64
2018-06-19T00:42:43.778Z,77.47
2018-06-19T00:43:14.958Z,77.30
2018-06-19T00:43:46.193Z,77.67
2018-06-19T00:44:17.428Z,77.08
2018-06-19T00:44:48.618Z,77.50
2018-06-19T00:45:19.827Z,77.41
2018-06-19T00:45:51.046Z,77.34
2018-06-19T00:46:22.224Z,76.78
2018-06-19T00:46:53.398Z,77.38
2018-06-19T00:47:24.569Z,76.56
2018-06-19T00:47:55.821Z,77.16
2018-06-19T00:48:27.076Z,76.79
2018-06-19T00:48:59.514Z,77.00
2018-06-19T00:49:30.760Z,77.31
2018-06-19T00:50:01.949Z,77.17
2018-06-19T00:50:33.132Z,76.98
2018-06-19T00:51:04.305Z,77.23
2018-06-19T00:51:35.546Z,76.84
2018-06-19T00:52:06.730Z,76.67
2018-06-19T00:52:37.916Z,76.47
2018-06-19T00:53:09.132Z,76.42
2018-06-19T00:53:40.315Z,76.98
2018-06-19T00:54:11.507Z,76.89
2018-06-19T00:54:42.677Z,76.81
2018-06-19T00:55:13.862Z,76.72
2018-06-19T00:55:45.045Z,76.08
2018-06-19T00:56:16.225Z,75.94
2018-06-19T00:56:47.428Z,76.14
2018-06-19T00:57:18.606Z,75.40
2018-06-19T00:57:49.801Z,75.65
2018-06-19T00:58:20.976Z,76.31
2018-06-19T00:58:52.205Z,76.19
2018-06-19T00:59:23.383Z,75.30
2018-06-19T00:59:54.560Z,74.74
2018-06-19T01:00:25.737Z,75.16
2018-06-19T01:00:56.915Z,74.88
2018-06-19T01:01:28.193Z,74.96
2018-06-19T01:01:59.418Z,74.82
2018-06-19T01:02:30.642Z,75.23
2018-06-19T01:03:01.828Z,74.87
2018-06-19T01:03:33.012Z,75.75
2018-06-19T01:04:04.185Z,74.98
2018-06-19T01:04:35.361Z,75.23
2018-06-19T01:05:06.543Z,75.06
2018-06-19T01:05:37.720Z,75.83
2018-06-19T01:06:08.888Z,75.54
2018-06-19T01:06:40.108Z,75.40
2018-06-19T01:07:11.277Z,75.62
2018-06-19T01:07:42.448Z,74.92
2018-06-19T01:08:13.669Z,75.07
2018-06-19T01:08:44.932Z,74.58
2018-06-19T01:09:16.126Z,74.89
2018-06-19T01:09:47.301Z,74.08
2018-06-19T01:10:18.521Z,74.50
2018-06-19T01:10:49.700Z,74.43
2018-06-19T01:11:20.953Z,74.85
2018-06-19T01:11:52.233Z,75.01
2018-06-19T01:12:23.524Z,74.29
2018-06-19T01:12:54.753Z,73.55
2018-06-19T01:13:26.231Z,73.83
2018-06-19T01:13:57.461Z,73.28
2018-06-19T01:14:28.645Z,74.17
2018-06-19T01:14:59.879Z,73.01
2018-06-19T01:15:31.060Z,73.17
2018-06-19T01:16:02.238Z,72.11
2018-06-19T01:16:33.408Z,72.25
2018-06-19T01:17:04.660Z,72.58
2018-06-19T01:17:35.845Z,72.31
2018-06-19T01:18:07.068Z,72.05
2018-06-19T01:18:38.256Z,72.24
2018-06-19T01:19:09.500Z,71.73
2018-06-19T01:19:40.720Z,71.90
2018-06-19T01:20:11.902Z,71.83
2018-06-19T01:20:43.126Z,71.79
2018-06-19T01:21:14.316Z,71.94
2018-06-19T01:21:45.501Z,72.07
2018-06-19T01:22:16.688Z,72.23
2018-06-19T01:22:47.925Z,72.10
2018-06-19T01:23:19.161Z,72.52
2018-06-19T01:23:50.396Z,72.81
2018-06-19T01:24:21.616Z,72.98
2018-06-19T01:24:52.845Z,72.76
2018-06-19T01:25:24.028Z,73.51
2018-06-19T01:25:55.203Z,73.45
2018-06-19T01:26:26.380Z,73.06
2018-06-19T01:26:57.552Z,73.38
2018-06-19T01:27:28.821Z,73.39
2018-06-19T01:28:00.061Z,72.78
2018-06-19T01:28:31.250Z,73.64
2018-06-19T01:29:02.490Z,73.69
2018-06-19T01:29:33.769Z,73.61
2018-06-19T01:30:05.009Z,73.08
2018-06-19T01:30:36.194Z,73.12
2018-06-19T01:31:07.383Z,73.33
2018-06-19T01:31:38.552Z,72.79
2018-06-19T01:32:09.727Z,73.18
2018-06-19T01:32:40.900Z,73.30
2018-06-19T01:33:12.110Z,72.63
2018-06-19T01:33:43.332Z,72.67
2018-06-19T01:34:14.606Z,72.61
2018-06-19T01:34:45.887Z,73.22
2018-06-19T01:35:17.070Z,73.18
2018-06-19T01:35:48.294Z,72.57
2018-06-19T01:36:19.485Z,72.63
2018-06-19T01:36:50.662Z,72.89
2018-06-19T01:37:21.846Z,72.70
2018-06-19T01:37:53.040Z,72.54
2018-06-19T01:38:24.251Z,72.79
2018-06-19T01:38:55.485Z,72.35
2018-06-19T01:39:26.758Z,72.16
2018-06-19T01:39:57.940Z,72.62
2018-06-19T01:40:29.108Z,72.45
2018-06-19T01:41:01.297Z,72.66
2018-06-19T01:41:32.474Z,72.16
2018-06-19T01:42:03.657Z,72.61
2018-06-19T01:42:34.897Z,72.14
2018-06-19T01:43:06.089Z,73.07
2018-06-19T01:43:37.271Z,72.16
2018-06-19T01:44:08.526Z,72.90
2018-06-19T01:44:39.696Z,73.24
2018-06-19T01:45:10.866Z,72.46
2018-06-19T01:45:42.036Z,73.25
2018-06-19T01:46:13.213Z,72.86
2018-06-19T01:46:44.461Z,72.65
2018-06-19T01:47:15.649Z,72.94
2018-06-19T01:47:46.818Z,73.31
2018-06-19T01:48:18.052Z,72.54
2018-06-19T01:48:49.299Z,72.43
2018-06-19T01:49:20.532Z,72.98
2018-06-19T01:49:51.708Z,72.38
2018-06-19T01:50:22.939Z,72.87
2018-06-19T01:50:54.174Z,72.49
2018-06-19T01:51:25.356Z,72.28
2018-06-19T01:51:56.532Z,72.63
2018-06-19T01:52:27.756Z,72.41
2018-06-19T01:52:59.021Z,72.53
2018-06-19T01:53:30.206Z,72.08
2018-06-19T01:54:01.433Z,72.67
2018-06-19T01:54:32.620Z,72.63
2018-06-19T01:55:03.802Z,72.22
2018-06-19T01:55:34.981Z,71.80
2018-06-19T01:56:06.162Z,72.07
2018-06-19T01:56:38.072Z,72.83
2018-06-19T01:57:09.253Z,72.45
2018-06-19T01:57:40.508Z,72.63
2018-06-19T01:58:11.749Z,72.91
2018-06-19T01:58:42.921Z,72.11
2018-06-19T01:59:14.096Z,72.47
2018-06-19T01:59:45.268Z,72.47
2018-06-19T02:00:16.460Z,72.88
2018-06-19T02:00:47.633Z,72.83
2018-06-19T02:01:18.820Z,72.75
2018-06-19T02:01:50.066Z,73.21
2018-06-19T02:02:21.244Z,72.84
2018-06-19T02:02:52.470Z,73.30
2018-06-19T02:03:23.746Z,72.84
2018-06-19T02:03:54.925Z,72.96
2018-06-19T02:04:26.152Z,73.10
2018-06-19T02:04:57.446Z,73.73
2018-06-19T02:05:28.688Z,73.90
2018-06-19T02:05:59.912Z,73.31
2018-06-19T02:06:31.096Z,73.75
2018-06-19T02:07:02.328Z,73.28
2018-06-19T02:07:33.601Z,72.89
2018-06-19T02:08:04.785Z,73.12
2018-06-19T02:08:36.018Z,73.74
2018-06-19T02:09:07.253Z,73.34
2018-06-19T02:09:38.498Z,73.65
2018-06-19T02:10:09.773Z,72.66
2018-06-19T02:10:41.008Z,73.20
2018-06-19T02:11:12.279Z,72.76
2018-06-19T02:11:43.466Z,73.28
2018-06-19T02:12:14.636Z,73.30
2018-06-19T02:12:45.857Z,73.62
2018-06-19T02:13:17.035Z,73.90
2018-06-19T02:13:48.200Z,73.45
2018-06-19T02:14:19.369Z,74.02
2018-06-19T02:14:50.550Z,73.61
2018-06-19T02:15:21.733Z,73.80
2018-06-19T02:15:53.322Z,73.62
2018-06-19T02:16:24.549Z,73.75
2018-06-19T02:16:55.776Z,74.43
2018-06-19T02:17:27.014Z,74.12
2018-06-19T02:17:58.188Z,74.43
2018-06-19T02:18:29.373Z,74.10
2018-06-19T02:19:00.646Z,74.55
2018-06-19T02:19:31.836Z,74.21
2018-06-19T02:20:03.062Z,74.23
2018-06-19T02:20:34.294Z,74.13
2018-06-19T02:21:05.495Z,74.93
2018-06-19T02:21:36.664Z,74.80
2018-06-19T02:22:07.839Z,75.02
2018-06-19T02:22:39.015Z,74.75
2018-06-19T02:23:10.203Z,74.48
2018-06-19T02:23:41.378Z,74.19
2018-06-19T02:24:12.597Z,73.87
2018-06-19T02:24:43.817Z,74.05
2018-06-19T02:25:14.992Z,74.17
2018-06-19T02:25:46.178Z,74.31
2018-06-19T02:26:17.357Z,74.48
2018-06-19T02:26:48.536Z,74.28
2018-06-19T02:27:19.716Z,74.11
2018-06-19T02:27:50.981Z,74.16
2018-06-19T02:28:22.217Z,74.39
2018-06-19T02:28:53.432Z,73.88
2018-06-19T02:29:24.612Z,74.06
2018-06-19T02:29:55.841Z,74.05
2018-06-19T02:30:27.024Z,74.06
2018-06-19T02:30:58.208Z,74.16
2018-06-19T02:31:29.413Z,74.33
2018-06-19T02:32:00.598Z,74.37
2018-06-19T02:32:31.830Z,75.12
2018-06-19T02:33:03.031Z,74.77
2018-06-19T02:33:34.217Z,74.91
2018-06-19T02:34:05.397Z,75.11
2018-06-19T02:34:36.634Z,74.86
2018-06-19T02:35:07.827Z,75.47
2018-06-19T02:35:39.006Z,75.24
2018-06-19T02:36:10.215Z,75.45
2018-06-19T02:36:41.394Z,75.33
2018-06-19T02:37:12.577Z,75.14
2018-06-19T02:37:43.757Z,74.94
2018-06-19T02:38:14.932Z,75.28
2018-06-19T02:38:46.162Z,75.75
2018-06-19T02:39:17.355Z,75.58
2018-06-19T02:39:48.580Z,75.33
2018-06-19T02:40:19.759Z,75.25
2018-06-19T02:40:50.973Z,75.74
2018-06-19T02:41:22.207Z,75.63
2018-06-19T02:41:53.455Z,75.36
2018-06-19T02:42:24.676Z,75.28
2018-06-19T02:42:55.868Z,75.06
2018-06-19T02:43:27.089Z,75.23
2018-06-19T02:43:58.266Z,75.60
2018-06-19T02:44:29.488Z,75.19
2018-06-19T02:45:00.725Z,75.00
2018-06-19T02:45:31.907Z,75.26
2018-06-19T02:46:03.097Z,75.77
2018-06-19T02:46:34.308Z,75.83
2018-06-19T02:47:05.545Z,75.16
2018-06-19T02:47:36.720Z,76.16
2018-06-19T02:48:07.896Z,75.77
2018-06-19T02:48:39.080Z,75.66
2018-06-19T02:49:10.259Z,75.50
2018-06-19T02:49:41.486Z,75.63
2018-06-19T02:50:12.714Z,76.18
2018-06-19T02:50:43.901Z,75.71
2018-06-19T02:51:15.075Z,75.65
2018-06-19T02:51:46.277Z,76.55
2018-06-19T02:52:17.532Z,76.36
2018-06-19T02:52:48.830Z,76.30
2018-06-19T02:53:20.012Z,76.06
2018-06-19T02:53:51.245Z,76.54
2018-06-19T02:54:22.481Z,76.55
2018-06-19T02:54:53.668Z,77.03
2018-06-19T02:55:24.848Z,76.34
2018-06-19T02:55:56.081Z,76.91
2018-06-19T02:56:27.264Z,76.56
2018-06-19T02:56:58.444Z,76.12
2018-06-19T02:57:29.677Z,75.67
2018-06-19T02:58:00.894Z,75.82
2018-06-19T02:58:32.082Z,75.66
2018-06-19T02:59:03.260Z,74.79
2018-06-19T02:59:34.505Z,75.46
2018-06-19T03:00:05.743Z,74.72
2018-06-19T03:00:36.976Z,75.25
2018-06-19T03:01:08.166Z,74.63
2018-06-19T03:01:39.407Z,75.17
2018-06-19T03:02:10.585Z,75.23
2018-06-19T03:02:41.809Z,74.08
2018-06-19T03:03:13.032Z,74.36
2018-06-19T03:03:44.210Z,74.26
2018-06-19T03:04:15.380Z,73.46
2018-06-19T03:04:46.613Z,73.76
2018-06-19T03:05:17.800Z,72.98
2018-06-19T03:05:49.026Z,72.94
2018-06-19T03:06:20.217Z,73.10
2018-06-19T03:06:51.412Z,72.72
2018-06-19T03:07:22.693Z,72.05
2018-06-19T03:07:53.952Z,71.82
2018-06-19T03:08:25.139Z,71.66
2018-06-19T03:08:56.413Z,72.03
2018-06-19T03:09:27.661Z,71.43
2018-06-19T03:09:58.852Z,71.13
2018-06-19T03:10:30.080Z,71.23
2018-06-19T03:11:01.260Z,71.16
2018-06-19T03:11:32.437Z,70.31
2018-06-19T03:12:03.665Z,70.21
2018-06-19T03:12:34.854Z,70.59
2018-06-19T03:13:06.037Z,69.89
2018-06-19T03:13:37.248Z,70.04
2018-06-19T03:14:08.431Z,69.02
2018-06-19T03:14:39.609Z,69.00
2018-06-19T03:15:10.788Z,69.27
2018-06-19T03:15:42.004Z,68.43
2018-06-19T03:16:13.297Z,68.59
2018-06-19T03:16:44.543Z,67.76
2018-06-19T03:17:15.724Z,67.69
2018-06-19T03:17:46.900Z,66.66
2018-06-19T03:18:18.071Z,67.21
2018-06-19T03:18:49.292Z,66.37
2018-06-19T03:19:20.488Z,65.95
2018-06-19T03:19:51.701Z,65.57
2018-06-19T03:20:22.864Z,65.33
2018-06-19T03:20:54.037Z,65.72
2018-06-19T03:21:25.263Z,65.17
2018-06-19T03:21:56.503Z,64.98
2018-06-19T03:22:27.685Z,64.05
2018-06-19T03:22:58.865Z,64.45
2018-06-19T03:23:30.038Z,63.27
2018-06-19T03:24:01.212Z,64.03
2018-06-19T03:24:32.381Z,63.02
2018-06-19T03:25:03.605Z,63.14
2018-06-19T03:25:34.779Z,63.76
2018-06-19T03:26:05.956Z,63.77
2018-06-19T03:26:37.127Z,62.93
2018-06-19T03:27:08.353Z,62.96
2018-06-19T03:27:39.532Z,63.89
2018-06-19T03:28:10.740Z,63.23
2018-06-19T03:28:41.924Z,62.81
2018-06-19T03:29:13.157Z,63.14
2018-06-19T03:29:44.379Z,63.16
2018-06-19T03:30:15.710Z,63.32
2018-06-19T03:30:46.925Z,62.54
2018-06-19T03:31:18.164Z,63.19
2018-06-19T03:31:49.397Z,62.73
2018-06-19T03:32:20.636Z,62.05
2018-06-19T03:32:51.867Z,61.55
2018-06-19T03:33:23.042Z,61.46
2018-06-19T03:33:54.266Z,60.59
2018-06-19T03:34:25.503Z,60.81
2018-06-19T03:34:56.732Z,60.63
2018-06-19T03:35:27.912Z,60.88
2018-06-19T03:35:59.072Z,60.48
2018-06-19T03:36:30.304Z,61.50
2018-06-19T03:37:01.472Z,61.57
2018-06-19T03:37:32.645Z,60.98
2018-06-19T03:38:03.829Z,60.34
2018-06-19T03:38:34.992Z,60.38
2018-06-19T03:39:06.200Z,60.05
2018-06-19T03:39:37.373Z,60.50
2018-06-19T03:40:08.540Z,60.34
2018-06-19T03:40:39.712Z,59.19
2018-06-19T03:41:10.880Z,59.54
2018-06-19T03:41:42.053Z,59.08
2018-06-19T03:42:13.279Z,59.06
2018-06-19T03:42:44.497Z,58.15
2018-06-19T03:43:15.754Z,57.90
2018-06-19T03:43:46.934Z,57.54
2018-06-19T03:44:18.101Z,57.52
2018-06-19T03:44:49.354Z,58.62
2018-06-19T03:45:20.537Z,57.57
2018-06-19T03:45:51.705Z,57.21
2018-06-19T03:46:22.880Z,57.17
2018-06-19T03:46:54.060Z,56.78
2018-06-19T03:47:25.284Z,56.91
2018-06-19T03:47:56.508Z,56.05
2018-06-19T03:48:27.676Z,56.49
2018-06-19T03:48:58.857Z,55.84
2018-06-19T03:49:30.046Z,55.74
2018-06-19T03:50:01.209Z,56.03
2018-06-19T03:50:32.445Z,54.92
2018-06-19T03:51:03.668Z,55.14
2018-06-19T03:51:34.865Z,54.32
2018-06-19T03:52:06.052Z,55.39
2018-06-19T03:52:37.268Z,54.06
2018-06-19T03:53:08.429Z,56.01
2018-06-19T03:53:39.601Z,55.45
2018-06-19T03:54:10.770Z,56.92
2018-06-19T03:54:41.944Z,56.50
2018-06-19T03:55:13.184Z,56.42
2018-06-19T03:55:44.365Z,57.99
2018-06-19T03:56:15.548Z,57.84
2018-06-19T03:56:46.725Z,58.26
2018-06-19T03:57:17.889Z,57.78
2018-06-19T03:57:49.097Z,58.78
2018-06-19T03:58:20.343Z,58.38
2018-06-19T03:58:51.528Z,57.24
2018-06-19T03:59:22.697Z,56.47
2018-06-19T03:59:53.873Z,55.95
2018-06-19T04:00:25.101Z,55.63
2018-06-19T04:00:56.308Z,55.01
2018-06-19T04:01:27.490Z,54.16
2018-06-19T04:01:58.714Z,53.15
2018-06-19T04:02:29.897Z,53.57
2018-06-19T04:03:01.120Z,53.84
2018-06-19T04:03:32.344Z,53.26
2018-06-19T04:04:03.517Z,53.72
2018-06-19T04:04:34.692Z,53.55
2018-06-19T04:05:05.865Z,53.30
2018-06-19T04:05:37.042Z,54.86
2018-06-19T04:06:08.219Z,55.15
2018-06-19T04:06:39.389Z,56.36
2018-06-19T04:07:10.562Z,56.67
2018-06-19T04:07:41.788Z,56.89
2018-06-19T04:08:12.997Z,56.81
2018-06-19T04:08:44.270Z,57.68
2018-06-19T04:09:15.449Z,56.54
2018-06-19T04:09:46.616Z,56.54
2018-06-19T04:10:17.837Z,54.71
2018-06-19T04:10:49.013Z,53.78
2018-06-19T04:11:20.290Z,53.84
2018-06-19T04:11:51.486Z,53.28
2018-06-19T04:12:22.685Z,52.84
2018-06-19T04:12:53.913Z,52.27
2018-06-19T04:13:25.092Z,51.81
2018-06-19T04:13:56.360Z,52.44
2018-06-19T04:14:27.559Z,53.11
2018-06-19T04:14:58.731Z,53.79
2018-06-19T04:15:29.944Z,53.52
2018-06-19T04:16:01.218Z,54.84
2018-06-19T04:16:32.450Z,54.89
2018-06-19T04:17:03.667Z,55.28
2018-06-19T04:17:34.834Z,55.30
2018-06-19T04:18:06.012Z,55.50
2018-06-19T04:18:37.278Z,55.16
2018-06-19T04:19:08.477Z,55.34
2018-06-19T04:19:39.651Z,54.79
2018-06-19T04:20:10.821Z,54.56
2018-06-19T04:20:42.036Z,54.00
2018-06-19T04:21:13.209Z,54.43
2018-06-19T04:21:44.404Z,54.67
2018-06-19T04:22:15.590Z,55.03
2018-06-19T04:22:46.760Z,55.77
2018-06-19T04:23:17.990Z,55.52
2018-06-19T04:23:49.261Z,55.31
2018-06-19T04:24:20.528Z,55.71
2018-06-19T04:24:51.709Z,54.58
2018-06-19T04:25:22.877Z,55.32
2018-06-19T04:25:54.152Z,55.07
2018-06-19T04:26:25.377Z,54.03
2018-06-19T04:26:56.560Z,53.16
2018-06-19T04:27:27.772Z,52.62
2018-06-19T04:27:58.952Z,53.25
2018-06-19T04:28:30.209Z,53.07
2018-06-19T04:29:01.433Z,52.07
2018-06-19T04:29:32.653Z,52.91
2018-06-19T04:30:03.832Z,52.37
2018-06-19T04:30:35.021Z,53.33
2018-06-19T04:31:06.193Z,54.13
2018-06-19T04:31:37.488Z,55.07
2018-06-19T04:32:08.714Z,55.62
2018-06-19T04:32:39.905Z,55.20
2018-06-19T04:33:11.072Z,55.32
2018-06-19T04:33:42.325Z,54.84
2018-06-19T04:34:13.559Z,54.05
2018-06-19T04:34:44.745Z,53.27
2018-06-19T04:35:15.918Z,52.67
2018-06-19T04:35:47.101Z,52.02
2018-06-19T04:36:18.279Z,51.24
2018-06-19T04:36:49.540Z,49.79
2018-06-19T04:37:20.752Z,49.52
2018-06-19T04:37:51.927Z,51.08
2018-06-19T04:38:23.160Z,50.48
2018-06-19T04:38:54.344Z,50.25
2018-06-19T04:39:25.513Z,51.01
2018-06-19T04:39:56.740Z,51.33
2018-06-19T04:40:27.940Z,52.59
2018-06-19T04:40:59.129Z,52.90
2018-06-19T04:41:30.353Z,53.62
2018-06-19T04:42:01.587Z,53.99
2018-06-19T04:42:32.729Z,52.83
2018-06-19T04:43:03.896Z,53.23
2018-06-19T04:43:35.081Z,52.77
2018-06-19T04:44:06.267Z,51.51
2018-06-19T04:44:37.441Z,51.64
2018-06-19T04:45:08.625Z,50.89
2018-06-19T04:45:39.857Z,49.08
2018-06-19T04:46:11.078Z,49.27
2018-06-19T04:46:42.257Z,47.81
2018-06-19T04:47:13.440Z,47.27
2018-06-19T04:47:44.636Z,47.28
2018-06-19T04:48:15.812Z,46.38
2018-06-19T04:48:46.994Z,45.88
2018-06-19T04:49:18.165Z,47.04
2018-06-19T04:49:49.431Z,46.82
2018-06-19T04:50:20.592Z,47.25
2018-06-19T04:50:51.773Z,47.45
2018-06-19T04:51:22.994Z,47.84
2018-06-19T04:51:54.175Z,49.22
2018-06-19T04:52:25.345Z,50.87
2018-06-19T04:52:56.541Z,51.16
2018-06-19T04:53:27.718Z,51.94
2018-06-19T04:53:58.945Z,52.81
2018-06-19T04:54:30.186Z,52.92
2018-06-19T04:55:01.413Z,52.09
2018-06-19T04:55:32.577Z,52.49
2018-06-19T04:56:03.761Z,51.93
2018-06-19T04:56:34.948Z,52.56
2018-06-19T04:57:06.148Z,51.69
2018-06-19T04:57:37.335Z,51.39
2018-06-19T04:58:08.513Z,51.44
2018-06-19T04:58:39.696Z,49.72
2018-06-19T04:59:10.933Z,49.52
2018-06-19T04:59:42.156Z,48.78
2018-06-19T05:00:13.398Z,49.14
2018-06-19T05:00:44.648Z,48.24
2018-06-19T05:01:15.840Z,48.94
2018-06-19T05:01:47.056Z,48.79
2018-06-19T05:02:18.240Z,49.19
2018-06-19T05:02:49.474Z,50.82
2018-06-19T05:03:20.660Z,50.86
2018-06-19T05:03:51.906Z,50.93
2018-06-19T05:04:23.100Z,50.50
2018-06-19T05:04:54.361Z,50.72
2018-06-19T05:05:25.554Z,50.32
2018-06-19T05:05:56.743Z,49.34
2018-06-19T05:06:27.921Z,49.49
2018-06-19T05:06:59.099Z,48.27
2018-06-19T05:07:30.284Z,47.21
2018-06-19T05:08:01.525Z,46.82
2018-06-19T05:08:32.725Z,45.77
2018-06-19T05:09:04.006Z,45.14
2018-06-19T05:09:35.277Z,44.32
2018-06-19T05:10:06.465Z,44.71
2018-06-19T05:10:37.667Z,44.00
2018-06-19T05:11:08.913Z,43.75
2018-06-19T05:11:40.093Z,43.56
2018-06-19T05:12:11.269Z,42.63
2018-06-19T05:12:42.511Z,42.54
2018-06-19T05:13:13.725Z,41.75
2018-06-19T05:13:45.002Z,41.52
2018-06-19T05:14:16.230Z,40.73
2018-06-19T05:14:47.480Z,41.67
2018-06-19T05:15:18.661Z,41.49
2018-06-19T05:15:49.921Z,42.17
2018-06-19T05:16:21.168Z,42.66
2018-06-19T05:16:52.420Z,43.53
2018-06-19T05:17:23.611Z,43.72
2018-06-19T05:17:54.784Z,43.79
2018-06-19T05:18:25.962Z,43.50
2018-06-19T05:18:57.139Z,43.55
2018-06-19T05:19:28.428Z,43.95
2018-06-19T05:19:59.633Z,43.07
2018-06-19T05:20:30.849Z,42.68
2018-06-19T05:21:02.025Z,42.23
2018-06-19T05:21:33.200Z,42.18
2018-06-19T05:22:04.382Z,41.82
2018-06-19T05:22:35.566Z,41.32
2018-06-19T05:23:06.801Z,40.50
2018-06-19T05:23:38.036Z,40.00
2018-06-19T05:24:09.226Z,40.06
2018-06-19T05:24:40.400Z,40.04
2018-06-19T05:25:11.572Z,40.33
2018-06-19T05:25:42.732Z,40.67
2018-06-19T05:26:13.911Z,40.57
2018-06-19T05:26:45.084Z,40.43
2018-06-19T05:27:16.253Z,39.88
2018-06-19T05:27:47.430Z,39.47
2018-06-19T05:28:18.596Z,39.30
2018-06-19T05:28:49.762Z,38.36
2018-06-19T05:29:20.982Z,38.56
2018-06-19T05:29:52.164Z,39.08
2018-06-19T05:30:23.379Z,38.71
2018-06-19T05:30:54.590Z,38.71
2018-06-19T05:31:28.609Z,38.99
2018-06-19T05:31:59.792Z,39.04
2018-06-19T05:32:31.057Z,39.27
2018-06-19T05:33:02.234Z,38.91
2018-06-19T05:33:33.409Z,38.50
2018-06-19T05:34:04.635Z,38.32
2018-06-19T05:34:35.820Z,38.22
2018-06-19T05:35:07.040Z,37.89
2018-06-19T05:35:38.245Z,37.19
2018-06-19T05:36:09.408Z,36.97
2018-06-19T05:36:40.637Z,37.08
2018-06-19T05:37:11.817Z,37.32
2018-06-19T05:37:42.998Z,37.44
2018-06-19T05:38:14.169Z,37.93
2018-06-19T05:38:45.337Z,37.96
2018-06-19T05:39:16.512Z,37.34
2018-06-19T05:39:47.687Z,37.79
2018-06-19T05:40:18.864Z,37.26
2018-06-19T05:40:51.010Z,37.26
2018-06-19T05:41:22.866Z,37.21
2018-06-19T05:41:54.038Z,37.27
2018-06-19T05:42:25.218Z,37.78
2018-06-19T05:42:56.424Z,37.98
2018-06-19T05:43:27.624Z,38.30
2018-06-19T05:43:58.813Z,38.71
2018-06-19T05:44:30.050Z,38.41
2018-06-19T05:45:01.241Z,38.51
2018-06-19T05:45:32.468Z,38.51
2018-06-19T05:46:03.648Z,38.36
2018-06-19T05:46:34.861Z,38.05
2018-06-19T05:47:06.094Z,37.80
2018-06-19T05:47:37.285Z,37.78
2018-06-19T05:48:08.573Z,37.68
2018-06-19T05:48:39.805Z,37.31
2018-06-19T05:49:12.122Z,37.08
2018-06-19T05:49:43.345Z,37.12
2018-06-19T05:50:15.705Z,37.21
2018-06-19T05:50:46.967Z,37.60
2018-06-19T05:51:18.159Z,38.04
2018-06-19T05:51:49.384Z,38.62
2018-06-19T05:52:23.582Z,38.35
2018-06-19T05:52:54.880Z,38.41
2018-06-19T05:53:26.069Z,38.45
2018-06-19T05:53:57.256Z,39.03
2018-06-19T05:54:28.521Z,39.13
2018-06-19T05:54:59.721Z,39.59
2018-06-19T05:55:30.949Z,39.79
2018-06-19T05:56:02.150Z,39.96
2018-06-19T05:56:33.324Z,40.28
2018-06-19T05:57:04.549Z,40.18
2018-06-19T05:57:35.734Z,39.70
2018-06-19T05:58:06.999Z,40.16
2018-06-19T05:58:38.181Z,39.86
2018-06-19T05:59:09.357Z,40.29
2018-06-19T05:59:40.654Z,40.16
2018-06-19T06:00:11.874Z,39.88
2018-06-19T06:00:43.057Z,39.82
2018-06-19T06:01:14.297Z,40.06
2018-06-19T06:02:22.924Z,40.72
2018-06-19T06:02:54.236Z,40.33
2018-06-19T06:03:25.461Z,40.43
2018-06-19T06:03:56.649Z,40.43
2018-06-19T06:04:27.821Z,40.18
2018-06-19T06:04:58.996Z,41.07
2018-06-19T06:05:30.251Z,41.26
2018-06-19T06:06:01.519Z,40.96
2018-06-19T06:06:32.705Z,40.60
2018-06-19T06:07:03.986Z,41.54
2018-06-19T06:07:35.234Z,41.44
2018-06-19T06:08:06.529Z,41.54
2018-06-19T06:08:37.749Z,41.97
2018-06-19T06:09:08.984Z,41.93
2018-06-19T06:09:41.041Z,41.66
2018-06-19T06:10:12.229Z,41.72
2018-06-19T06:10:43.401Z,41.46
2018-06-19T06:11:15.272Z,40.97
2018-06-19T06:11:46.478Z,42.07
2018-06-19T06:12:17.708Z,42.77
2018-06-19T06:12:48.966Z,43.07
2018-06-19T06:13:20.202Z,43.41
2018-06-19T06:13:51.383Z,43.62
2018-06-19T06:14:22.546Z,43.95
2018-06-19T06:14:53.717Z,43.70
2018-06-19T06:15:24.892Z,42.35
2018-06-19T06:15:56.162Z,43.66
2018-06-19T06:16:27.427Z,43.91
2018-06-19T06:16:59.233Z,43.74
2018-06-19T06:17:30.494Z,43.34
2018-06-19T06:18:01.669Z,43.34
2018-06-19T06:18:32.841Z,42.93
2018-06-19T06:19:04.028Z,42.54
2018-06-19T06:19:35.191Z,42.73
2018-06-19T06:20:06.442Z,43.13
2018-06-19T06:20:37.665Z,43.75
2018-06-19T06:21:08.856Z,43.41
2018-06-19T06:21:40.037Z,43.56
2018-06-19T06:22:11.313Z,43.55
2018-06-19T06:22:42.569Z,43.31
2018-06-19T06:23:51.145Z,43.30
2018-06-19T06:24:22.318Z,44.06
2018-06-19T06:24:53.534Z,43.88
2018-06-19T06:25:24.708Z,44.22
2018-06-19T06:25:55.912Z,43.61
2018-06-19T06:26:27.128Z,43.80
2018-06-19T06:26:58.364Z,44.08
2018-06-19T06:27:29.669Z,44.14
2018-06-19T06:28:00.897Z,44.63
2018-06-19T06:28:32.133Z,44.74
2018-06-19T06:29:03.354Z,44.86
2018-06-19T06:29:34.580Z,45.28
2018-06-19T06:30:05.753Z,45.33
2018-06-19T06:30:36.969Z,45.70
2018-06-19T06:31:08.226Z,45.40
2018-06-19T06:31:39.400Z,44.98
2018-06-19T06:32:10.565Z,45.19
2018-06-19T06:32:41.881Z,44.60
2018-06-19T06:33:13.064Z,44.78
2018-06-19T06:33:44.289Z,43.79
2018-06-19T06:34:15.508Z,43.75
2018-06-19T06:34:46.708Z,43.58
2018-06-19T06:35:17.891Z,43.76
2018-06-19T06:35:49.069Z,43.47
2018-06-19T06:36:20.264Z,43.47
2018-06-19T06:36:51.493Z,43.70
2018-06-19T06:37:22.677Z,43.21
2018-06-19T06:37:53.848Z,43.43
2018-06-19T06:38:25.039Z,42.41
2018-06-19T06:38:56.253Z,42.83
2018-06-19T06:39:27.489Z,43.46
2018-06-19T06:39:58.729Z,43.70
2018-06-19T06:40:30.011Z,43.91
2018-06-19T06:41:01.188Z,43.81
2018-06-19T06:41:32.406Z,43.29
2018-06-19T06:42:03.648Z,43.12
2018-06-19T06:42:34.839Z,43.25
2018-06-19T06:43:06.071Z,43.46